Latest Weather Observations for Mount Crawford

IDS60901

Issued at 1:41 am CST Thursday 30 June 2016 (issued every 10 minutes, with the page automatically refreshed every 10 minutes)

About weather observations | Map of Adelaide area stations | Latest observations for Adelaide area | Other Formats
Station Details ID: 023878 Name: MOUNT CRAWFORD AWS Lat: -34.73 Lon: 138.93 Height: 525.0 m
Data from the previous 72 hours. | See also: Recent months at Mount Crawford
Date/Time
CST
Temp
°C
App
Temp
°C
Dew
Point
°C
Rel
Hum
%
Delta-T
°C
Wind Press
QNH
hPa
Press
MSL
hPa
Rain since
9am
mm
Dir  Spd
km/h
Gust
km/h
Spd
kts
Gust
kts
30/01:30am 7.8 0.0 4.9 82 1.3 NW 35 54 19 29 1012.9 1013.2 0.0
30/01:00am 7.6 0.2 4.9 83 1.2 NW 33 52 18 28 1012.8 1013.1 0.0
30/12:30am 7.1 -0.2 4.6 84 1.1 NW 32 50 17 27 1013.3 1013.5 0.0
30/12:27am 7.1 -0.1 4.8 85 1.0 NW 32 50 17 27 1013.3 1013.5 0.0
30/12:00am 7.0 -0.9 4.5 84 1.1 NW 35 52 19 28 1013.5 1013.7 0.0
 
Date/Time
CST
Temp
°C
App
Temp
°C
Dew
Point
°C
Rel
Hum
%
Delta-T
°C
Wind Press
QNH
hPa
Press
MSL
hPa
Rain since
9am
mm
Dir  Spd
km/h
Gust
km/h
Spd
kts
Gust
kts
29/11:35pm 7.1 -1.2 4.4 83 1.2 NW 37 56 20 30 1013.9 1014.1 0.0
29/11:30pm 7.1 -1.6 4.2 82 1.3 NNW 39 54 21 29 1013.9 1014.1 0.0
29/11:02pm 7.2 -1.5 4.3 82 1.3 NNW 39 57 21 31 1014.1 1014.4 0.0
29/11:00pm 7.2 -1.1 4.3 82 1.3 NNW 37 54 20 29 1014.1 1014.4 0.0
29/10:47pm 7.2 -1.0 4.5 83 1.2 NNW 37 57 20 31 1014.3 1014.6 0.0
29/10:30pm 7.0 -0.9 4.5 84 1.1 NNW 35 52 19 28 1014.5 1014.8 0.0
29/10:15pm 7.0 -0.9 4.3 83 1.2 NNW 35 54 19 29 1014.7 1015.0 0.0
29/10:00pm 7.1 -0.8 4.4 83 1.2 NNW 35 48 19 26 1014.9 1015.2 0.0
29/09:34pm 6.9 0.4 4.6 85 1.0 NNW 28 46 15 25 1015.4 1015.6 0.0
29/09:30pm 6.9 0.4 4.6 85 1.0 NNW 28 43 15 23 1015.4 1015.6 0.0
29/09:00pm 7.1 0.2 4.6 84 1.1 N 30 44 16 24 1015.7 1016.0 0.0
29/08:30pm 7.0 -0.3 4.5 84 1.1 N 32 43 17 23 1015.8 1016.1 0.0
29/08:00pm 6.9 1.2 4.7 86 1.0 N 24 35 13 19 1016.2 1016.5 0.0
29/07:30pm 7.0 0.9 5.0 87 0.9 N 26 35 14 19 1016.4 1016.7 0.0
29/07:00pm 6.8 1.1 5.1 89 0.8 NNW 24 35 13 19 1016.5 1016.8 0.0
29/06:30pm 7.0 0.5 4.8 86 1.0 NNW 28 44 15 24 1016.7 1017.0 0.0
29/06:00pm 7.1 0.6 4.9 86 1.0 NNW 28 39 15 21 1016.8 1017.1 0.0
29/05:30pm 7.3 0.9 5.3 87 0.9 NNW 28 43 15 23 1016.8 1017.1 0.0
29/05:07pm 7.5 1.1 5.1 85 1.1 NNW 28 46 15 25 1016.7 1017.0 0.0
29/05:00pm 7.6 0.8 5.1 84 1.1 NNW 30 43 16 23 1016.8 1017.1 0.0
29/04:30pm 7.7 0.3 5.0 83 1.2 NNW 33 44 18 24 1016.9 1017.2 0.0
29/04:00pm 7.8 0.0 4.7 81 1.4 NNW 35 52 19 28 1017.5 1017.8 0.0
29/03:30pm 7.8 0.4 5.1 83 1.2 NNW 33 52 18 28 1017.5 1017.8 0.0
29/03:00pm 7.9 0.2 5.4 84 1.2 NW 35 54 19 29 1017.9 1018.2 0.0
29/02:30pm 8.3 1.0 4.5 77 1.7 NNW 32 50 17 27 1018.1 1018.4 0.0
29/02:25pm 8.3 1.0 4.5 77 1.7 NNW 32 50 17 27 1018.2 1018.5 0.0
29/02:00pm 8.1 0.9 5.0 81 1.4 NNW 32 41 17 22 1018.6 1018.9 0.0
29/01:30pm 8.2 1.8 5.3 82 1.3 NNW 28 39 15 21 1019.2 1019.5 0.0
29/01:00pm 7.9 1.5 5.2 83 1.2 NNW 28 37 15 20 1020.0 1020.3 0.0
29/12:30pm 7.8 1.4 5.3 84 1.1 NNW 28 37 15 20 1020.6 1021.0 0.0
29/12:03pm 7.8 1.0 5.1 83 1.2 NNW 30 48 16 26 1021.2 1021.5 0.0
29/12:00pm 7.8 0.6 5.1 83 1.2 NNW 32 48 17 26 1021.3 1021.6 0.0
29/11:30am 7.8 0.6 5.1 83 1.2 NNW 32 48 17 26 1022.0 1022.3 0.0
29/11:00am 7.7 0.9 5.3 85 1.1 NNW 30 46 16 25 1022.6 1023.0 0.0
29/10:51am 7.6 1.2 5.1 84 1.1 NNW 28 46 15 25 1022.7 1023.1 0.0
29/10:30am 7.4 1.8 5.2 86 1.0 NNW 24 35 13 19 1023.0 1023.4 0.0
29/10:05am 7.4 0.9 4.9 84 1.1 NNW 28 46 15 25 1023.5 1023.8 0.0
29/10:00am 7.4 1.3 4.9 84 1.1 NNW 26 39 14 21 1023.6 1023.9 0.0
29/09:30am 7.7 1.2 4.7 81 1.4 NNW 28 46 15 25 1023.7 1024.1 0.0
29/09:26am 7.7 1.2 4.5 80 1.4 NNW 28 46 15 25 1023.7 1024.1 0.0
29/09:00am 7.7 1.2 4.5 80 1.4 NNW 28 41 15 22 1023.7 1024.1 0.0
29/08:30am 7.6 1.4 4.4 80 1.4 NNW 26 37 14 20 1023.7 1024.1 0.0
29/08:00am 7.5 1.7 4.5 81 1.4 NNW 24 35 13 19 1023.9 1024.3 0.0
29/07:30am 7.7 1.5 4.3 79 1.5 NNW 26 37 14 20 1023.8 1024.2 0.0
29/07:00am 7.6 1.8 4.6 81 1.4 NNW 24 32 13 17 1023.7 1024.1 0.0
29/06:30am 6.7 1.3 4.5 86 1.0 NNW 22 28 12 15 1023.6 1023.9 0.0
29/06:00am 6.3 0.4 4.1 86 1.0 N 24 33 13 18 1023.7 1024.1 0.0
29/05:30am 6.4 0.4 3.6 82 1.2 N 24 33 13 18 1023.7 1024.1 0.0
29/05:00am 6.4 0.0 3.2 80 1.4 NNW 26 33 14 18 1023.7 1024.1 0.0
29/04:30am 6.5 0.5 3.3 80 1.4 N 24 33 13 18 1023.7 1024.1 0.0
29/04:00am 6.6 0.6 3.2 79 1.5 N 24 39 13 21 1023.7 1024.1 0.0
29/03:30am 6.8 0.8 3.4 79 1.5 N 24 35 13 19 1023.9 1024.3 0.0
29/03:00am 6.9 1.3 3.5 79 1.5 N 22 32 12 17 1024.1 1024.5 0.0
29/02:30am 7.4 2.4 3.5 76 1.7 N 19 24 10 13 1024.2 1024.6 0.0
29/02:00am 7.4 2.1 2.9 73 2.0 NNW 20 24 11 13 1024.4 1024.8 0.0
29/01:30am 7.7 2.7 3.4 74 1.9 NNW 19 24 10 13 1024.5 1024.9 0.0
29/01:00am 7.4 2.4 3.5 76 1.7 N 19 22 10 12 1024.6 1025.0 0.0
29/12:30am 7.5 2.5 3.6 76 1.7 NNW 19 24 10 13 1024.8 1025.2 0.0
29/12:00am 7.7 3.1 3.7 76 1.8 N 17 22 9 12 1025.0 1025.4 0.0
 
Date/Time
CST
Temp
°C
App
Temp
°C
Dew
Point
°C
Rel
Hum
%
Delta-T
°C
Wind Press
QNH
hPa
Press
MSL
hPa
Rain since
9am
mm
Dir  Spd
km/h
Gust
km/h
Spd
kts
Gust
kts
28/11:30pm 7.7 3.1 3.6 75 1.8 N 17 20 9 11 1025.4 1025.8 0.0
28/11:00pm 7.6 3.0 3.6 76 1.8 N 17 22 9 12 1025.3 1025.6 0.0
28/10:30pm 7.5 2.9 3.9 78 1.6 N 17 22 9 12 1025.5 1025.9 0.0
28/10:00pm 7.7 3.0 5.0 83 1.2 N 19 24 10 13 1025.6 1026.0 0.0
28/09:30pm 7.7 3.0 5.3 85 1.1 NNW 19 22 10 12 1025.7 1026.1 0.0
28/09:00pm 8.0 3.7 5.1 82 1.3 NNW 17 22 9 12 1025.7 1026.1 0.0
28/08:30pm 8.1 3.8 5.4 83 1.2 NNW 17 22 9 12 1025.7 1026.1 0.0
28/08:00pm 8.3 4.5 5.8 84 1.2 NNW 15 19 8 10 1025.9 1026.3 0.0
28/07:30pm 8.4 5.1 6.4 87 0.9 NW 13 19 7 10 1025.8 1026.2 0.0
28/07:00pm 8.4 5.2 6.9 90 0.7 NNW 13 17 7 9 1025.8 1026.2 0.0
28/06:30pm 8.6 5.1 7.2 91 0.7 NW 15 20 8 11 1025.6 1026.0 0.0
28/06:00pm 8.7 5.3 7.5 92 0.6 NW 15 20 8 11 1025.4 1025.8 0.0
28/05:30pm 9.1 6.1 7.9 92 0.6 NW 13 19 7 10 1025.5 1025.9 0.0
28/05:00pm 9.6 7.1 8.2 91 0.7 NW 11 20 6 11 1025.5 1025.9 0.0
28/04:30pm 9.8 6.5 8.1 89 0.8 WNW 15 22 8 12 1025.5 1025.9 0.0
28/04:00pm 11.0 7.0 8.1 82 1.5 NW 19 28 10 15 1025.4 1025.8 0.0
28/03:30pm 10.3 7.1 8.6 89 0.9 WNW 15 24 8 13 1025.4 1025.8 0.0
28/03:00pm 11.3 7.8 8.7 84 1.3 NW 17 28 9 15 1025.3 1025.6 0.0
28/02:30pm 11.0 7.0 8.4 84 1.3 NW 19 30 10 16 1025.4 1025.8 0.0
28/02:00pm 10.9 6.2 7.8 81 1.5 WNW 22 30 12 16 1025.4 1025.8 0.0
28/01:30pm 11.0 7.0 8.1 82 1.4 WNW 19 28 10 15 1025.6 1026.0 0.0
28/01:00pm 10.3 5.5 7.4 82 1.4 WNW 22 32 12 17 1025.8 1026.2 0.0
28/12:30pm 10.9 6.0 8.5 85 1.2 WNW 24 33 13 18 1025.9 1026.3 0.0
28/12:00pm 10.5 4.4 8.4 87 1.1 W 30 39 16 21 1025.8 1026.2 0.0
28/11:30am 10.1 5.2 8.4 89 0.8 W 24 35 13 19 1026.1 1026.5 0.0
28/11:00am 9.6 3.8 8.0 90 0.8 W 28 35 15 19 1026.2 1026.6 0.0
28/10:30am 9.2 4.2 8.0 92 0.6 WNW 24 35 13 19 1026.4 1026.8 0.0
28/10:00am 8.4 3.6 7.5 94 0.4 W 22 28 12 15 1026.4 1026.8 0.0
28/09:30am 7.9 3.0 7.1 95 0.4 WNW 22 30 12 16 1026.2 1026.6 0.0
28/09:00am 7.1 2.8 6.8 98 0.1 WNW 19 26 10 14 1025.7 1026.1 0.2
28/08:30am 6.6 2.0 6.6 100 0.0 WNW 20 26 11 14 1025.5 1025.9 0.2
28/08:00am 6.4 1.8 6.4 100 0.0 WNW 20 26 11 14 1025.3 1025.6 0.2
28/07:30am 6.2 1.5 6.2 100 0.0 WNW 20 30 11 16 1025.0 1025.4 0.2
28/07:00am 6.1 1.4 6.1 100 0.0 WNW 20 30 11 16 1024.6 1025.0 0.2
28/06:30am 6.1 1.4 6.1 100 0.0 WNW 20 28 11 15 1024.1 1024.5 0.2
28/06:00am 6.3 1.8 6.3 100 0.0 WNW 19 24 10 13 1023.9 1024.3 0.2
28/05:30am 6.6 1.3 6.6 100 0.0 WNW 24 32 13 17 1023.7 1024.1 0.2
28/05:00am 6.5 1.9 6.5 100 0.0 WNW 20 24 11 13 1023.6 1023.9 0.0
28/04:30am 6.5 2.1 6.5 100 0.0 WNW 19 28 10 15 1023.4 1023.7 0.0
28/04:00am 6.3 1.8 6.3 100 0.0 WNW 19 28 10 15 1023.3 1023.6 0.0
28/03:30am 6.3 1.8 6.3 100 0.0 WNW 19 26 10 14 1023.4 1023.7 0.0
28/03:00am 6.4 1.8 6.4 100 0.0 WNW 20 28 11 15 1023.5 1023.8 0.0
28/02:30am 6.6 2.2 6.6 100 0.0 WNW 19 26 10 14 1023.7 1024.1 0.0
28/02:00am 6.5 2.5 6.5 100 0.0 WNW 17 24 9 13 1023.7 1024.1 0.0
28/01:30am 6.6 2.6 6.6 100 0.0 NW 17 22 9 12 1023.6 1023.9 0.0
28/01:00am 6.5 2.1 6.5 100 0.0 WNW 19 24 10 13 1023.5 1023.8 0.0
28/12:30am 6.2 1.1 6.2 100 0.0 WNW 22 26 12 14 1023.4 1023.7 0.0
28/12:00am 6.2 2.1 6.2 100 0.0 WNW 17 22 9 12 1023.3 1023.6 0.0
 
Date/Time
CST
Temp
°C
App
Temp
°C
Dew
Point
°C
Rel
Hum
%
Delta-T
°C
Wind Press
QNH
hPa
Press
MSL
hPa
Rain since
9am
mm
Dir  Spd
km/h
Gust
km/h
Spd
kts
Gust
kts
27/11:30pm 6.5 1.9 6.5 100 0.0 WNW 20 28 11 15 1023.5 1023.8 0.0
27/11:00pm 6.3 1.8 6.3 100 0.0 WNW 19 24 10 13 1023.4 1023.7 0.0
27/10:30pm 6.7 2.1 6.7 100 0.0 WNW 20 28 11 15 1023.3 1023.6 0.0
27/10:00pm 6.7 2.7 6.6 99 0.0 WNW 17 22 9 12 1023.3 1023.6 0.0
27/09:30pm 6.9 2.9 6.8 99 0.0 WNW 17 20 9 11 1023.2 1023.5 0.0
27/09:00pm 7.0 3.4 6.9 99 0.0 WNW 15 20 8 11 1022.9 1023.3 0.0
27/08:30pm 7.4 3.4 6.7 95 0.3 WNW 17 20 9 11 1022.8 1023.2 0.0
27/08:00pm 7.9 3.5 6.7 92 0.6 WNW 19 26 10 14 1022.6 1023.0 0.0
27/07:30pm 7.9 3.8 6.4 90 0.7 WNW 17 22 9 12 1022.4 1022.8 0.0
27/07:00pm 8.1 4.4 6.2 88 0.9 WNW 15 20 8 11 1022.1 1022.5 0.0
27/06:30pm 8.0 3.9 6.0 87 0.9 W 17 22 9 12 1021.9 1022.2 0.0
27/06:00pm 7.9 4.1 5.9 87 0.9 W 15 20 8 11 1021.5 1021.8 0.0
27/05:30pm 8.2 4.8 5.8 85 1.1 W 13 17 7 9 1021.4 1021.7 0.0
27/05:00pm 8.5 3.9 5.8 83 1.3 W 19 24 10 13 1021.0 1021.4 0.0
27/04:30pm 9.6 5.1 6.0 78 1.7 W 19 28 10 15 1020.8 1021.2 0.0
27/04:00pm 10.3 5.6 5.9 74 2.1 W 20 28 11 15 1020.6 1021.0 0.0
27/03:30pm 9.4 5.5 5.4 76 1.9 WSW 15 22 8 12 1020.4 1020.7 0.0
27/03:00pm 10.4 5.4 4.8 68 2.6 WSW 20 32 11 17 1020.0 1020.3 0.0
27/02:30pm 10.9 6.5 4.8 66 2.8 SW 17 30 9 16 1020.0 1020.3 0.0
27/02:00pm 10.4 5.3 4.1 65 2.9 WSW 20 33 11 18 1019.8 1020.1 0.0
27/01:30pm 10.5 5.1 4.4 66 2.8 WSW 22 32 12 17 1020.0 1020.3 0.0
27/01:00pm 10.1 5.4 6.1 76 1.9 WSW 20 30 11 16 1020.1 1020.4 0.0
27/12:30pm 9.5 6.2 6.2 80 1.6 SW 13 24 7 13 1020.1 1020.4 0.0
27/12:00pm 9.5 5.1 7.6 88 0.9 WSW 20 30 11 16 1020.4 1020.7 0.0
27/11:30am 9.1 6.1 9.1 100 0.0 WSW 15 24 8 13 1020.6 1021.0 0.0
27/11:00am 9.0 5.9 9.0 100 0.0 WSW 15 20 8 11 1020.5 1020.9 0.0
27/10:30am 8.6 - - - - SW 13 22 7 12 1020.4 1020.7 0.0
27/10:00am 7.9 5.3 7.9 100 0.0 SW 11 20 6 11 1020.1 1020.4 0.0
27/09:30am 7.6 5.0 7.6 100 0.0 SW 11 17 6 9 1019.8 1020.1 0.0
27/09:00am 7.2 4.8 7.2 100 0.0 WSW 9 15 5 8 1019.6 1019.9 2.2
27/08:30am 7.0 5.0 7.0 100 0.0 W 7 9 4 5 1019.2 1019.5 2.2
27/08:00am 6.8 4.4 6.8 100 0.0 W 9 11 5 6 1018.8 1019.2 2.2
27/07:30am 6.6 4.1 6.6 100 0.0 WSW 9 13 5 7 1018.5 1018.8 2.2
27/07:00am 6.6 3.3 6.6 100 0.0 W 13 17 7 9 1018.0 1018.3 2.2
27/06:30am 6.6 2.6 6.6 100 0.0 W 17 22 9 12 1017.6 1017.9 2.2
27/06:00am 6.4 2.7 6.4 100 0.0 W 15 19 8 10 1017.2 1017.4 2.0
27/05:30am 6.4 2.0 6.4 100 0.0 W 19 24 10 13 1016.8 1017.1 2.0
27/05:00am 6.4 1.8 6.4 100 0.0 WNW 20 26 11 14 1016.3 1016.6 2.0
27/04:30am 6.2 2.1 6.2 100 0.0 WNW 17 22 9 12 1016.2 1016.5 2.0
27/04:00am 6.1 2.0 6.1 100 0.0 WNW 17 22 9 12 1016.1 1016.4 1.4
27/03:30am 6.0 1.9 6.0 100 0.0 WNW 17 22 9 12 1016.0 1016.3 1.2
27/03:00am 6.1 2.0 6.1 100 0.0 WNW 17 22 9 12 1016.1 1016.4 1.0
27/02:30am 5.9 1.7 5.9 100 0.0 NW 17 22 9 12 1016.1 1016.4 0.8
27/02:00am 5.8 1.2 5.8 100 0.0 WNW 19 28 10 15 1016.0 1016.3 0.8

Latest Capital City Observations: Canberra | Sydney | Melbourne | Brisbane | Adelaide | Perth | Hobart | Darwin

Other Formats:

Comma delimited format used in spreadsheet applications
http://www.bom.gov.au/fwo/IDS60901/IDS60901.94678.axf

JavaScript Object Notation format (JSON) in row-major order
http://www.bom.gov.au/fwo/IDS60901/IDS60901.94678.json